Airfield :
LOGIN :

Register | Disclaimer

   EN    FR    IT 

 










Legend :    VFR   Marginal VFR   IFR   Intensive IFR   Very Intensive IFR
Visi :
Ceiling :
>= 8 km
>= 3000ft
5 to 8 km
1000 to 3000 ft
1500m to 5 km
500 to 1000 ft
800 to 1500m
200 to 500 ft
< 800m
< 200 ft
Symbols :   Thunderstorms  Fog  Heavy snow  Heavy precipitations  Wind > 20 kt
SIGMETs :     Misc.  Thunderstorms  Icing  Turbulence  Mountain Waves  Volcanic Ashes







- Airport Elevation : 13 ft
- IATA code : LYX
- Download approach charts


EGMD - Lydd

CURRENT METAR :
  • 210250Z AUTO 20025KT 9999 BKN015/// OVC019/// 16/15 Q1004

EXPIRED METARs :
  • 210220Z AUTO 19021KT 9999 FEW010/// BKN015/// OVC020/// 16/15 Q1004 RERA
  • 210150Z AUTO 18020KT 9999 -RA FEW009/// BKN021/// OVC026/// 15/15 Q1004 RERA
  • 210120Z AUTO 19020KT 4100 RA BKN016/// BKN022/// 16/14 Q1005
  • 210050Z AUTO 19021KT 9999 SCT028/// BKN034/// BKN039/// 16/13 Q1005
  • 210020Z AUTO 19020KT 9999 FEW024/// BKN032/// OVC039/// 16/12 Q1006
  • 202350Z AUTO 19019KT 9999 SCT027/// BKN032/// BKN040/// 16/12 Q1006

TAF TAF EGMD
Valid from the 21 at 03:00 until the 21 at 12:00 UTC


210200Z 2103/2112 20022KT 9999 SCT020
TEMPO 2103/2112 7000 SHRA
PROB40
TEMPO 2103/2106 21025G35KT
BECMG 2106/2109 22032G42KT
ATIS : +44 1797 322 422
No reported NOTAMs for that airfield.
1 SIGMET reported for the London FIR (EGTT) :
 
Severe turbulence
EGTT SIGMET 01 VALID 210200/210600 EGRR
EGTT LONDON FIR SEV TURB FCST WI N4850 W00800 - N5100 W00800 - N5220 W00530 - N5340 W00530 - N5340 W00400 - N4937 W00400 - N4850 W00800 SFC/FL060 MOV E 20KT NC=



MET'MAP, your aeronautical weather chart ! - Copyright ORBIFLY December 2007 - Disclaimer

ORBIFLY MET'MAP TEAM :

Programming & Development : Alexandra Zaïnal
Concept & Development : Baudouin d'Aumeries
Co-Development & Prog : Marc-Olivier Méhu
Technical & hardware support : Manuel Goepfert

Contact : metmap@orbifly.com




SOURCES & CREDITS :

   NOAA